sensor_id;sensor_type;location;lat;lon;timestamp;P1;durP1;ratioP1;P2;durP2;ratioP2
10063;SDS011;5071;52.360;13.134;2023-03-11T00:01:06;10.20;;;6.07;;
10063;SDS011;5071;52.360;13.134;2023-03-11T00:06:09;11.17;;;6.43;;
10063;SDS011;5071;52.360;13.134;2023-03-11T00:11:11;10.00;;;5.67;;
10063;SDS011;5071;52.360;13.134;2023-03-11T00:16:14;11.07;;;6.23;;
10063;SDS011;5071;52.360;13.134;2023-03-11T00:21:17;13.97;;;6.60;;
10063;SDS011;5071;52.360;13.134;2023-03-11T00:26:19;13.17;;;6.90;;
10063;SDS011;5071;52.360;13.134;2023-03-11T00:31:21;11.93;;;6.80;;
10063;SDS011;5071;52.360;13.134;2023-03-11T00:36:26;12.87;;;6.80;;
10063;SDS011;5071;52.360;13.134;2023-03-11T00:41:30;11.90;;;6.17;;
10063;SDS011;5071;52.360;13.134;2023-03-11T00:46:35;14.00;;;6.77;;
10063;SDS011;5071;52.360;13.134;2023-03-11T00:51:39;11.30;;;7.03;;
10063;SDS011;5071;52.360;13.134;2023-03-11T00:56:41;15.97;;;8.40;;
10063;SDS011;5071;52.360;13.134;2023-03-11T01:01:44;13.90;;;7.77;;
10063;SDS011;5071;52.360;13.134;2023-03-11T01:06:47;12.00;;;6.43;;
10063;SDS011;5071;52.360;13.134;2023-03-11T01:11:49;15.43;;;7.40;;
10063;SDS011;5071;52.360;13.134;2023-03-11T01:16:51;14.33;;;6.60;;
10063;SDS011;5071;52.360;13.134;2023-03-11T01:21:55;8.13;;;5.53;;
10063;SDS011;5071;52.360;13.134;2023-03-11T01:26:57;12.13;;;5.00;;
10063;SDS011;5071;52.360;13.134;2023-03-11T01:31:59;6.80;;;3.73;;
10063;SDS011;5071;52.360;13.134;2023-03-11T01:37:02;5.17;;;3.47;;
10063;SDS011;5071;52.360;13.134;2023-03-11T01:42:05;3.07;;;2.00;;
10063;SDS011;5071;52.360;13.134;2023-03-11T01:47:31;2.30;;;1.47;;
10063;SDS011;5071;52.360;13.134;2023-03-11T01:52:39;1.70;;;1.20;;
10063;SDS011;5071;52.360;13.134;2023-03-11T01:57:45;1.10;;;1.00;;
10063;SDS011;5071;52.360;13.134;2023-03-11T02:02:49;1.47;;;1.30;;
10063;SDS011;5071;52.360;13.134;2023-03-11T02:07:54;1.47;;;1.10;;
10063;SDS011;5071;52.360;13.134;2023-03-11T02:12:56;1.30;;;1.03;;
10063;SDS011;5071;52.360;13.134;2023-03-11T02:18:00;2.13;;;1.43;;
10063;SDS011;5071;52.360;13.134;2023-03-11T02:23:04;2.70;;;1.87;;
10063;SDS011;5071;52.360;13.134;2023-03-11T02:28:09;1.47;;;1.23;;
10063;SDS011;5071;52.360;13.134;2023-03-11T02:33:13;2.77;;;1.80;;
10063;SDS011;5071;52.360;13.134;2023-03-11T02:38:16;4.07;;;2.90;;
10063;SDS011;5071;52.360;13.134;2023-03-11T02:43:20;6.20;;;3.33;;
10063;SDS011;5071;52.360;13.134;2023-03-11T02:48:25;4.33;;;3.10;;
10063;SDS011;5071;52.360;13.134;2023-03-11T02:53:29;4.87;;;3.27;;
10063;SDS011;5071;52.360;13.134;2023-03-11T02:58:37;5.00;;;3.20;;
10063;SDS011;5071;52.360;13.134;2023-03-11T03:03:39;5.30;;;3.50;;
10063;SDS011;5071;52.360;13.134;2023-03-11T03:08:42;4.13;;;3.10;;
10063;SDS011;5071;52.360;13.134;2023-03-11T03:13:45;4.90;;;3.77;;
10063;SDS011;5071;52.360;13.134;2023-03-11T03:18:47;5.97;;;3.63;;
10063;SDS011;5071;52.360;13.134;2023-03-11T03:23:49;5.03;;;3.17;;
10063;SDS011;5071;52.360;13.134;2023-03-11T03:28:53;5.00;;;3.30;;
10063;SDS011;5071;52.360;13.134;2023-03-11T03:33:55;5.10;;;3.67;;
10063;SDS011;5071;52.360;13.134;2023-03-11T03:38:57;4.80;;;3.57;;
10063;SDS011;5071;52.360;13.134;2023-03-11T03:44:00;4.67;;;3.10;;
10063;SDS011;5071;52.360;13.134;2023-03-11T03:49:02;6.10;;;3.63;;
10063;SDS011;5071;52.360;13.134;2023-03-11T03:54:05;6.80;;;4.10;;
10063;SDS011;5071;52.360;13.134;2023-03-11T03:59:08;5.00;;;2.73;;
10063;SDS011;5071;52.360;13.134;2023-03-11T04:04:13;5.70;;;3.23;;
10063;SDS011;5071;52.360;13.134;2023-03-11T04:09:15;3.77;;;2.00;;
10063;SDS011;5071;52.360;13.134;2023-03-11T04:14:19;3.03;;;2.43;;
10063;SDS011;5071;52.360;13.134;2023-03-11T04:19:21;3.77;;;2.53;;
10063;SDS011;5071;52.360;13.134;2023-03-11T04:24:23;2.73;;;2.03;;
10063;SDS011;5071;52.360;13.134;2023-03-11T04:29:26;3.40;;;2.23;;
10063;SDS011;5071;52.360;13.134;2023-03-11T04:34:29;5.30;;;2.73;;
10063;SDS011;5071;52.360;13.134;2023-03-11T04:39:31;2.97;;;2.17;;
10063;SDS011;5071;52.360;13.134;2023-03-11T04:44:35;2.90;;;2.37;;
10063;SDS011;5071;52.360;13.134;2023-03-11T04:49:37;4.23;;;2.93;;
10063;SDS011;5071;52.360;13.134;2023-03-11T04:54:39;2.53;;;2.30;;
10063;SDS011;5071;52.360;13.134;2023-03-11T04:59:42;3.60;;;2.50;;
10063;SDS011;5071;52.360;13.134;2023-03-11T05:04:45;3.00;;;2.00;;
10063;SDS011;5071;52.360;13.134;2023-03-11T05:09:47;4.50;;;2.60;;
10063;SDS011;5071;52.360;13.134;2023-03-11T05:14:50;3.53;;;2.37;;
10063;SDS011;5071;52.360;13.134;2023-03-11T05:19:52;3.90;;;2.50;;
10063;SDS011;5071;52.360;13.134;2023-03-11T05:24:54;4.93;;;2.50;;
10063;SDS011;5071;52.360;13.134;2023-03-11T05:29:57;4.20;;;2.23;;
10063;SDS011;5071;52.360;13.134;2023-03-11T05:34:59;4.87;;;2.80;;
10063;SDS011;5071;52.360;13.134;2023-03-11T05:40:01;4.77;;;2.47;;
10063;SDS011;5071;52.360;13.134;2023-03-11T05:45:05;6.93;;;3.70;;
10063;SDS011;5071;52.360;13.134;2023-03-11T05:50:08;4.50;;;2.87;;
10063;SDS011;5071;52.360;13.134;2023-03-11T05:55:12;6.27;;;4.30;;
10063;SDS011;5071;52.360;13.134;2023-03-11T06:00:15;6.63;;;4.23;;
10063;SDS011;5071;52.360;13.134;2023-03-11T06:05:18;6.90;;;4.53;;
10063;SDS011;5071;52.360;13.134;2023-03-11T06:10:20;5.80;;;3.87;;
10063;SDS011;5071;52.360;13.134;2023-03-11T06:15:23;6.20;;;4.33;;
10063;SDS011;5071;52.360;13.134;2023-03-11T06:20:25;8.17;;;4.07;;
10063;SDS011;5071;52.360;13.134;2023-03-11T06:25:28;9.27;;;4.63;;
10063;SDS011;5071;52.360;13.134;2023-03-11T06:30:31;9.10;;;5.00;;
10063;SDS011;5071;52.360;13.134;2023-03-11T06:35:33;10.33;;;4.73;;
10063;SDS011;5071;52.360;13.134;2023-03-11T06:40:35;9.37;;;5.13;;
10063;SDS011;5071;52.360;13.134;2023-03-11T06:45:39;7.53;;;5.17;;
10063;SDS011;5071;52.360;13.134;2023-03-11T06:50:41;10.63;;;5.10;;
10063;SDS011;5071;52.360;13.134;2023-03-11T06:55:42;10.90;;;5.13;;
10063;SDS011;5071;52.360;13.134;2023-03-11T07:00:46;10.53;;;5.50;;
10063;SDS011;5071;52.360;13.134;2023-03-11T07:05:51;13.23;;;4.97;;
10063;SDS011;5071;52.360;13.134;2023-03-11T07:11:00;7.50;;;4.83;;
10063;SDS011;5071;52.360;13.134;2023-03-11T07:16:05;8.73;;;5.53;;
10063;SDS011;5071;52.360;13.134;2023-03-11T07:21:09;8.83;;;5.60;;
10063;SDS011;5071;52.360;13.134;2023-03-11T07:26:14;10.93;;;5.00;;
10063;SDS011;5071;52.360;13.134;2023-03-11T07:31:19;7.43;;;5.10;;
10063;SDS011;5071;52.360;13.134;2023-03-11T07:36:23;8.87;;;4.80;;
10063;SDS011;5071;52.360;13.134;2023-03-11T07:41:26;8.93;;;5.50;;
10063;SDS011;5071;52.360;13.134;2023-03-11T07:46:31;11.77;;;5.57;;
10063;SDS011;5071;52.360;13.134;2023-03-11T07:51:35;7.83;;;5.43;;
10063;SDS011;5071;52.360;13.134;2023-03-11T07:56:38;10.77;;;4.70;;
10063;SDS011;5071;52.360;13.134;2023-03-11T08:01:41;6.93;;;4.47;;
10063;SDS011;5071;52.360;13.134;2023-03-11T08:06:44;6.33;;;4.80;;
10063;SDS011;5071;52.360;13.134;2023-03-11T08:11:48;6.37;;;4.30;;
10063;SDS011;5071;52.360;13.134;2023-03-11T08:16:51;7.63;;;5.03;;
10063;SDS011;5071;52.360;13.134;2023-03-11T08:21:53;5.97;;;4.13;;
10063;SDS011;5071;52.360;13.134;2023-03-11T08:26:55;5.83;;;4.00;;
10063;SDS011;5071;52.360;13.134;2023-03-11T08:31:58;5.47;;;3.70;;
10063;SDS011;5071;52.360;13.134;2023-03-11T08:37:00;5.80;;;3.43;;
10063;SDS011;5071;52.360;13.134;2023-03-11T08:42:03;5.17;;;3.87;;
10063;SDS011;5071;52.360;13.134;2023-03-11T08:47:07;5.43;;;3.43;;
10063;SDS011;5071;52.360;13.134;2023-03-11T08:52:09;7.67;;;3.70;;
10063;SDS011;5071;52.360;13.134;2023-03-11T08:57:11;5.33;;;3.50;;
10063;SDS011;5071;52.360;13.134;2023-03-11T09:02:15;8.43;;;5.33;;
10063;SDS011;5071;52.360;13.134;2023-03-11T09:07:17;6.67;;;4.87;;
10063;SDS011;5071;52.360;13.134;2023-03-11T09:12:19;5.63;;;3.93;;
10063;SDS011;5071;52.360;13.134;2023-03-11T09:17:23;4.47;;;3.67;;
10063;SDS011;5071;52.360;13.134;2023-03-11T09:22:25;7.03;;;4.70;;
10063;SDS011;5071;52.360;13.134;2023-03-11T09:27:27;6.07;;;4.30;;
10063;SDS011;5071;52.360;13.134;2023-03-11T09:32:31;6.27;;;4.40;;
10063;SDS011;5071;52.360;13.134;2023-03-11T09:37:33;7.20;;;4.30;;
10063;SDS011;5071;52.360;13.134;2023-03-11T09:42:36;7.80;;;4.53;;
10063;SDS011;5071;52.360;13.134;2023-03-11T09:47:58;8.07;;;4.87;;
10063;SDS011;5071;52.360;13.134;2023-03-11T09:53:09;7.50;;;5.50;;
10063;SDS011;5071;52.360;13.134;2023-03-11T09:58:21;6.97;;;4.73;;
10063;SDS011;5071;52.360;13.134;2023-03-11T10:03:34;8.43;;;5.30;;
10063;SDS011;5071;52.360;13.134;2023-03-11T10:08:44;5.50;;;4.30;;
10063;SDS011;5071;52.360;13.134;2023-03-11T10:13:51;5.23;;;4.00;;
10063;SDS011;5071;52.360;13.134;2023-03-11T10:19:06;6.93;;;4.60;;
10063;SDS011;5071;52.360;13.134;2023-03-11T10:29:50;6.97;;;5.60;;
10063;SDS011;5071;52.360;13.134;2023-03-11T10:34:59;8.17;;;5.13;;
10063;SDS011;5071;52.360;13.134;2023-03-11T10:40:14;8.67;;;5.87;;
10063;SDS011;5071;52.360;13.134;2023-03-11T10:45:24;6.53;;;5.13;;
10063;SDS011;5071;52.360;13.134;2023-03-11T10:50:30;7.47;;;5.73;;
10063;SDS011;5071;52.360;13.134;2023-03-11T10:55:43;7.83;;;5.27;;
10063;SDS011;5071;52.360;13.134;2023-03-11T11:00:58;6.50;;;4.80;;
10063;SDS011;5071;52.360;13.134;2023-03-11T11:06:05;9.23;;;4.83;;
10063;SDS011;5071;52.360;13.134;2023-03-11T11:11:21;8.07;;;5.33;;
10063;SDS011;5071;52.360;13.134;2023-03-11T11:16:25;5.70;;;4.33;;
10063;SDS011;5071;52.360;13.134;2023-03-11T11:21:31;8.67;;;5.13;;
10063;SDS011;5071;52.360;13.134;2023-03-11T11:26:34;6.50;;;4.27;;
10063;SDS011;5071;52.360;13.134;2023-03-11T11:31:37;10.10;;;4.73;;
10063;SDS011;5071;52.360;13.134;2023-03-11T11:36:41;6.70;;;4.53;;
10063;SDS011;5071;52.360;13.134;2023-03-11T11:41:43;5.20;;;3.87;;
10063;SDS011;5071;52.360;13.134;2023-03-11T11:46:46;5.57;;;3.80;;
10063;SDS011;5071;52.360;13.134;2023-03-11T11:51:55;5.63;;;3.97;;
10063;SDS011;5071;52.360;13.134;2023-03-11T11:57:08;7.67;;;4.13;;
10063;SDS011;5071;52.360;13.134;2023-03-11T12:02:18;5.50;;;3.90;;
10063;SDS011;5071;52.360;13.134;2023-03-11T12:07:47;6.07;;;4.13;;
10063;SDS011;5071;52.360;13.134;2023-03-11T12:18:35;8.00;;;4.10;;
10063;SDS011;5071;52.360;13.134;2023-03-11T12:23:47;6.67;;;4.13;;
10063;SDS011;5071;52.360;13.134;2023-03-11T12:29:10;7.73;;;4.03;;
10063;SDS011;5071;52.360;13.134;2023-03-11T12:34:23;5.23;;;3.93;;
10063;SDS011;5071;52.360;13.134;2023-03-11T12:39:28;5.63;;;3.83;;
10063;SDS011;5071;52.360;13.134;2023-03-11T12:44:31;5.77;;;3.63;;
10063;SDS011;5071;52.360;13.134;2023-03-11T12:49:33;6.00;;;3.60;;
10063;SDS011;5071;52.360;13.134;2023-03-11T12:54:38;4.17;;;3.27;;
10063;SDS011;5071;52.360;13.134;2023-03-11T12:59:56;7.23;;;4.63;;
10063;SDS011;5071;52.360;13.134;2023-03-11T13:05:11;5.37;;;3.70;;
10063;SDS011;5071;52.360;13.134;2023-03-11T13:10:35;7.83;;;3.13;;
10063;SDS011;5071;52.360;13.134;2023-03-11T13:15:40;5.27;;;3.00;;
10063;SDS011;5071;52.360;13.134;2023-03-11T13:20:43;5.27;;;2.97;;
10063;SDS011;5071;52.360;13.134;2023-03-11T13:26:09;6.27;;;3.70;;
10063;SDS011;5071;52.360;13.134;2023-03-11T13:31:35;5.23;;;3.33;;
10063;SDS011;5071;52.360;13.134;2023-03-11T13:36:53;4.77;;;3.40;;
10063;SDS011;5071;52.360;13.134;2023-03-11T13:42:12;6.03;;;3.70;;
10063;SDS011;5071;52.360;13.134;2023-03-11T13:47:18;4.87;;;3.80;;
10063;SDS011;5071;52.360;13.134;2023-03-11T13:52:23;6.33;;;3.97;;
10063;SDS011;5071;52.360;13.134;2023-03-11T13:57:29;5.73;;;3.67;;
10063;SDS011;5071;52.360;13.134;2023-03-11T14:02:33;8.70;;;3.83;;
10063;SDS011;5071;52.360;13.134;2023-03-11T14:07:36;4.60;;;3.10;;
10063;SDS011;5071;52.360;13.134;2023-03-11T14:12:45;5.90;;;3.10;;
10063;SDS011;5071;52.360;13.134;2023-03-11T14:17:47;4.90;;;2.87;;
10063;SDS011;5071;52.360;13.134;2023-03-11T14:22:51;4.43;;;3.23;;
10063;SDS011;5071;52.360;13.134;2023-03-11T14:27:57;3.87;;;2.53;;
10063;SDS011;5071;52.360;13.134;2023-03-11T14:33:02;4.13;;;2.30;;
10063;SDS011;5071;52.360;13.134;2023-03-11T14:38:17;2.37;;;1.93;;
10063;SDS011;5071;52.360;13.134;2023-03-11T14:43:22;4.50;;;2.50;;
10063;SDS011;5071;52.360;13.134;2023-03-11T14:48:26;4.30;;;2.73;;
10063;SDS011;5071;52.360;13.134;2023-03-11T14:53:32;4.37;;;2.07;;
10063;SDS011;5071;52.360;13.134;2023-03-11T14:58:40;3.57;;;2.47;;
10063;SDS011;5071;52.360;13.134;2023-03-11T15:03:52;2.53;;;1.83;;
10063;SDS011;5071;52.360;13.134;2023-03-11T15:09:05;4.57;;;2.10;;
10063;SDS011;5071;52.360;13.134;2023-03-11T15:14:15;2.60;;;1.87;;
10063;SDS011;5071;52.360;13.134;2023-03-11T15:19:22;2.63;;;1.93;;
10063;SDS011;5071;52.360;13.134;2023-03-11T15:24:31;2.27;;;1.50;;
10063;SDS011;5071;52.360;13.134;2023-03-11T15:29:36;1.50;;;1.10;;
10063;SDS011;5071;52.360;13.134;2023-03-11T15:34:39;3.03;;;1.37;;
10063;SDS011;5071;52.360;13.134;2023-03-11T15:39:42;1.90;;;1.03;;
10063;SDS011;5071;52.360;13.134;2023-03-11T15:45:00;2.33;;;1.20;;
10063;SDS011;5071;52.360;13.134;2023-03-11T15:50:14;1.80;;;1.17;;
10063;SDS011;5071;52.360;13.134;2023-03-11T15:55:26;3.20;;;1.30;;
10063;SDS011;5071;52.360;13.134;2023-03-11T16:00:32;3.87;;;1.60;;
10063;SDS011;5071;52.360;13.134;2023-03-11T16:05:35;4.03;;;1.10;;
10063;SDS011;5071;52.360;13.134;2023-03-11T16:10:37;0.97;;;0.80;;
10063;SDS011;5071;52.360;13.134;2023-03-11T16:15:41;2.57;;;1.93;;
10063;SDS011;5071;52.360;13.134;2023-03-11T16:20:45;2.50;;;1.40;;
10063;SDS011;5071;52.360;13.134;2023-03-11T16:25:52;2.97;;;1.27;;
10063;SDS011;5071;52.360;13.134;2023-03-11T16:30:59;2.20;;;1.70;;
10063;SDS011;5071;52.360;13.134;2023-03-11T16:36:02;3.37;;;1.50;;
10063;SDS011;5071;52.360;13.134;2023-03-11T16:41:05;4.17;;;2.33;;
10063;SDS011;5071;52.360;13.134;2023-03-11T16:46:09;3.73;;;1.77;;
10063;SDS011;5071;52.360;13.134;2023-03-11T16:51:16;2.63;;;1.57;;
10063;SDS011;5071;52.360;13.134;2023-03-11T16:56:18;4.73;;;2.33;;
10063;SDS011;5071;52.360;13.134;2023-03-11T17:01:22;3.53;;;1.40;;
10063;SDS011;5071;52.360;13.134;2023-03-11T17:06:26;3.37;;;1.43;;
10063;SDS011;5071;52.360;13.134;2023-03-11T17:11:28;2.87;;;2.30;;
10063;SDS011;5071;52.360;13.134;2023-03-11T17:16:35;2.90;;;1.37;;
10063;SDS011;5071;52.360;13.134;2023-03-11T17:21:38;1.37;;;1.20;;
10063;SDS011;5071;52.360;13.134;2023-03-11T17:26:40;5.00;;;2.00;;
10063;SDS011;5071;52.360;13.134;2023-03-11T17:31:43;3.63;;;2.30;;
10063;SDS011;5071;52.360;13.134;2023-03-11T17:36:46;1.87;;;1.60;;
10063;SDS011;5071;52.360;13.134;2023-03-11T17:41:48;1.83;;;1.20;;
10063;SDS011;5071;52.360;13.134;2023-03-11T17:46:51;3.13;;;1.50;;
10063;SDS011;5071;52.360;13.134;2023-03-11T17:51:53;3.80;;;1.63;;
10063;SDS011;5071;52.360;13.134;2023-03-11T17:56:56;16.67;;;8.40;;
10063;SDS011;5071;52.360;13.134;2023-03-11T18:01:59;6.07;;;3.67;;
10063;SDS011;5071;52.360;13.134;2023-03-11T18:07:02;6.07;;;3.27;;
10063;SDS011;5071;52.360;13.134;2023-03-11T18:12:04;3.77;;;2.60;;
10063;SDS011;5071;52.360;13.134;2023-03-11T18:17:08;4.50;;;2.33;;
10063;SDS011;5071;52.360;13.134;2023-03-11T18:22:11;5.00;;;1.67;;
10063;SDS011;5071;52.360;13.134;2023-03-11T18:27:14;4.57;;;1.20;;
10063;SDS011;5071;52.360;13.134;2023-03-11T18:32:18;2.90;;;1.70;;
10063;SDS011;5071;52.360;13.134;2023-03-11T18:37:20;3.30;;;1.50;;
10063;SDS011;5071;52.360;13.134;2023-03-11T18:42:22;2.30;;;1.43;;
10063;SDS011;5071;52.360;13.134;2023-03-11T18:47:26;1.33;;;1.00;;
10063;SDS011;5071;52.360;13.134;2023-03-11T18:52:28;1.30;;;1.10;;
10063;SDS011;5071;52.360;13.134;2023-03-11T18:57:31;2.97;;;1.40;;
10063;SDS011;5071;52.360;13.134;2023-03-11T19:02:35;1.80;;;1.30;;
10063;SDS011;5071;52.360;13.134;2023-03-11T19:07:37;1.40;;;0.97;;
10063;SDS011;5071;52.360;13.134;2023-03-11T19:12:38;0.97;;;0.87;;
10063;SDS011;5071;52.360;13.134;2023-03-11T19:17:42;1.67;;;0.70;;
10063;SDS011;5071;52.360;13.134;2023-03-11T19:22:46;3.33;;;1.10;;
10063;SDS011;5071;52.360;13.134;2023-03-11T19:27:49;1.80;;;1.17;;
10063;SDS011;5071;52.360;13.134;2023-03-11T19:32:52;2.00;;;1.00;;
10063;SDS011;5071;52.360;13.134;2023-03-11T19:37:54;4.87;;;0.93;;
10063;SDS011;5071;52.360;13.134;2023-03-11T19:42:57;2.27;;;0.93;;
10063;SDS011;5071;52.360;13.134;2023-03-11T19:48:01;5.13;;;1.30;;
10063;SDS011;5071;52.360;13.134;2023-03-11T19:53:03;3.23;;;0.90;;
10063;SDS011;5071;52.360;13.134;2023-03-11T19:58:06;12.00;;;5.47;;
10063;SDS011;5071;52.360;13.134;2023-03-11T20:03:10;3.27;;;1.57;;
10063;SDS011;5071;52.360;13.134;2023-03-11T20:08:13;1.10;;;1.00;;
10063;SDS011;5071;52.360;13.134;2023-03-11T20:13:18;3.77;;;1.60;;
10063;SDS011;5071;52.360;13.134;2023-03-11T20:18:24;2.57;;;1.10;;
10063;SDS011;5071;52.360;13.134;2023-03-11T20:23:25;1.13;;;0.93;;
10063;SDS011;5071;52.360;13.134;2023-03-11T20:28:28;6.30;;;1.47;;
10063;SDS011;5071;52.360;13.134;2023-03-11T20:33:31;2.03;;;1.20;;
10063;SDS011;5071;52.360;13.134;2023-03-11T20:38:33;1.87;;;1.07;;
10063;SDS011;5071;52.360;13.134;2023-03-11T20:43:36;1.77;;;1.20;;
10063;SDS011;5071;52.360;13.134;2023-03-11T20:48:40;2.33;;;0.90;;
10063;SDS011;5071;52.360;13.134;2023-03-11T20:53:43;2.13;;;1.13;;
10063;SDS011;5071;52.360;13.134;2023-03-11T20:58:45;2.60;;;1.40;;
10063;SDS011;5071;52.360;13.134;2023-03-11T21:03:50;1.20;;;1.10;;
10063;SDS011;5071;52.360;13.134;2023-03-11T21:08:54;1.23;;;0.90;;
10063;SDS011;5071;52.360;13.134;2023-03-11T21:13:58;4.20;;;1.30;;
10063;SDS011;5071;52.360;13.134;2023-03-11T21:19:02;0.80;;;0.73;;
10063;SDS011;5071;52.360;13.134;2023-03-11T21:24:04;4.10;;;1.57;;
10063;SDS011;5071;52.360;13.134;2023-03-11T21:29:07;1.53;;;0.90;;
10063;SDS011;5071;52.360;13.134;2023-03-11T21:34:11;1.10;;;0.73;;
10063;SDS011;5071;52.360;13.134;2023-03-11T21:39:13;1.53;;;0.90;;
10063;SDS011;5071;52.360;13.134;2023-03-11T21:44:15;2.80;;;1.40;;
10063;SDS011;5071;52.360;13.134;2023-03-11T21:49:21;3.77;;;1.03;;
10063;SDS011;5071;52.360;13.134;2023-03-11T21:54:23;0.67;;;0.47;;
10063;SDS011;5071;52.360;13.134;2023-03-11T21:59:26;0.83;;;0.70;;
10063;SDS011;5071;52.360;13.134;2023-03-11T22:04:29;1.20;;;0.80;;
10063;SDS011;5071;52.360;13.134;2023-03-11T22:09:32;2.93;;;0.80;;
10063;SDS011;5071;52.360;13.134;2023-03-11T22:14:35;5.33;;;1.60;;
10063;SDS011;5071;52.360;13.134;2023-03-11T22:19:38;1.40;;;1.13;;
10063;SDS011;5071;52.360;13.134;2023-03-11T22:24:40;1.00;;;0.83;;
10063;SDS011;5071;52.360;13.134;2023-03-11T22:29:44;1.83;;;0.80;;
10063;SDS011;5071;52.360;13.134;2023-03-11T22:34:48;1.03;;;0.70;;
10063;SDS011;5071;52.360;13.134;2023-03-11T22:39:50;2.07;;;0.70;;
10063;SDS011;5071;52.360;13.134;2023-03-11T22:44:52;1.30;;;0.80;;
10063;SDS011;5071;52.360;13.134;2023-03-11T22:49:55;1.80;;;0.50;;
10063;SDS011;5071;52.360;13.134;2023-03-11T22:54:57;4.87;;;1.00;;
10063;SDS011;5071;52.360;13.134;2023-03-11T23:00:00;5.27;;;0.80;;
10063;SDS011;5071;52.360;13.134;2023-03-11T23:05:03;0.77;;;0.63;;
10063;SDS011;5071;52.360;13.134;2023-03-11T23:10:07;2.53;;;0.87;;
10063;SDS011;5071;52.360;13.134;2023-03-11T23:15:12;4.53;;;0.80;;
10063;SDS011;5071;52.360;13.134;2023-03-11T23:20:17;3.03;;;0.70;;
10063;SDS011;5071;52.360;13.134;2023-03-11T23:25:19;0.97;;;0.70;;
10063;SDS011;5071;52.360;13.134;2023-03-11T23:30:22;1.27;;;0.60;;
10063;SDS011;5071;52.360;13.134;2023-03-11T23:35:25;3.37;;;0.80;;
10063;SDS011;5071;52.360;13.134;2023-03-11T23:40:27;6.37;;;1.27;;
10063;SDS011;5071;52.360;13.134;2023-03-11T23:45:29;2.73;;;1.10;;
10063;SDS011;5071;52.360;13.134;2023-03-11T23:50:32;2.33;;;1.10;;
10063;SDS011;5071;52.360;13.134;2023-03-11T23:55:35;1.20;;;0.90;;
